Terminal Aerodrome Forecast
Issued by NWS Wilmington, OH

Current Version | Previous Version | Graphics & Text | Print | Product List | Glossary On
Versions: 1 2 3 4 5 6 7 8 9 10 11 12 13 14 15 16 17 18 19 20 21 22 23 24
661
FTUS41 KILN 250858 AAB
TAFILN
TAF AMD
KILN 250858Z 2509/2606 26005KT P6SM SCT030 BKN250
      TEMPO 2509/2512 4SM BR
     FM251200 26005KT P6SM FEW035 SCT100 BKN250
     FM251700 26010KT P6SM VCTS SCT040CB
     FM252100 29007KT P6SM VCTS SCT040CB
     FM260100 VRB03KT P6SM SCT250=

USA.gov is the U.S. government's official web portal to all federal, state and local government web resources and services.